createdAt,value
2018-12-23T00:00:33.934Z,21.07
2018-12-23T00:03:03.201Z,19.07
2018-12-23T00:05:31.437Z,20.73
2018-12-23T00:07:59.837Z,25.87
2018-12-23T00:10:27.977Z,24.33
2018-12-23T00:12:56.299Z,25.33
2018-12-23T00:15:24.652Z,16.93
2018-12-23T00:17:52.939Z,24.43
2018-12-23T00:20:21.547Z,18.43
2018-12-23T00:22:56.727Z,22.93
2018-12-23T00:25:24.034Z,29.50
2018-12-23T00:27:51.228Z,20.20
2018-12-23T00:30:18.556Z,19.00
2018-12-23T00:32:45.769Z,20.40
2018-12-23T00:35:20.280Z,21.27
2018-12-23T00:37:43.460Z,18.10
2018-12-23T00:40:11.907Z,19.57
2018-12-23T00:42:40.255Z,23.17
2018-12-23T00:45:08.630Z,17.53
2018-12-23T00:47:37.037Z,15.00
2018-12-23T00:50:06.937Z,26.77
2018-12-23T00:52:35.359Z,24.27
2018-12-23T00:55:04.000Z,20.00
2018-12-23T00:57:32.447Z,26.03
2018-12-23T01:00:01.353Z,20.60
2018-12-23T01:02:30.092Z,16.80
2018-12-23T01:04:58.427Z,18.93
2018-12-23T01:07:27.077Z,28.57
2018-12-23T01:09:55.669Z,31.97
2018-12-23T01:12:24.050Z,14.77
2018-12-23T01:14:52.368Z,19.93
2018-12-23T01:17:20.886Z,21.53
2018-12-23T01:19:49.267Z,21.53
2018-12-23T01:22:17.596Z,20.30
2018-12-23T01:24:45.933Z,17.33
2018-12-23T01:27:14.401Z,21.17
2018-12-23T01:29:42.764Z,25.87
2018-12-23T01:32:11.041Z,21.93
2018-12-23T01:34:39.516Z,29.50
2018-12-23T01:37:07.735Z,22.23
2018-12-23T01:39:36.028Z,20.97
2018-12-23T01:42:06.641Z,20.03
2018-12-23T01:44:34.992Z,19.07
2018-12-23T01:47:03.778Z,23.60
2018-12-23T01:49:32.145Z,17.30
2018-12-23T01:52:00.632Z,27.43
2018-12-23T01:54:29.053Z,24.87
2018-12-23T01:56:57.511Z,30.20
2018-12-23T01:59:25.816Z,20.73
2018-12-23T02:01:55.950Z,21.73
2018-12-23T02:04:24.452Z,19.90
2018-12-23T02:06:52.800Z,18.87
2018-12-23T02:09:21.048Z,18.83
2018-12-23T02:11:51.516Z,30.13
2018-12-23T02:14:19.992Z,17.80
2018-12-23T02:16:48.332Z,22.27
2018-12-23T02:19:16.692Z,25.43
2018-12-23T02:21:45.136Z,19.67
2018-12-23T02:24:13.632Z,32.87
2018-12-23T02:26:42.011Z,20.23
2018-12-23T02:29:12.000Z,20.50
2018-12-23T02:31:40.376Z,21.17
2018-12-23T02:34:08.849Z,25.47
2018-12-23T02:36:37.198Z,24.10
2018-12-23T02:39:08.641Z,26.97
2018-12-23T02:41:37.621Z,27.80
2018-12-23T02:44:05.992Z,22.87
2018-12-23T02:46:34.368Z,31.10
2018-12-23T02:49:03.018Z,25.77
2018-12-23T02:51:31.467Z,32.63
2018-12-23T02:53:59.711Z,35.83
2018-12-23T02:56:28.033Z,27.43
2018-12-23T02:58:56.502Z,30.27
2018-12-23T03:01:24.868Z,26.30
2018-12-23T03:03:53.633Z,25.07
2018-12-23T03:06:22.091Z,33.93
2018-12-23T03:08:50.652Z,24.10
2018-12-23T03:11:19.063Z,28.77
2018-12-23T03:13:47.837Z,31.90
2018-12-23T03:16:16.156Z,31.97
2018-12-23T03:18:44.485Z,40.37
2018-12-23T03:21:12.925Z,38.20
2018-12-23T03:23:41.390Z,23.87
2018-12-23T03:26:09.764Z,29.10
2018-12-23T03:28:38.025Z,33.07
2018-12-23T03:31:06.434Z,28.13
2018-12-23T03:33:35.407Z,24.10
2018-12-23T03:36:03.825Z,22.00
2018-12-23T03:38:32.175Z,30.23
2018-12-23T03:41:00.742Z,35.90
2018-12-23T03:43:29.083Z,33.63
2018-12-23T03:45:57.497Z,32.03
2018-12-23T03:48:25.968Z,34.13
2018-12-23T03:50:55.073Z,40.27
2018-12-23T03:53:23.663Z,37.13
2018-12-23T03:55:51.972Z,30.73
2018-12-23T03:58:20.292Z,33.30
2018-12-23T04:00:48.997Z,29.13
2018-12-23T04:03:17.504Z,31.73
2018-12-23T04:05:45.828Z,43.00
2018-12-23T04:08:14.164Z,38.03
2018-12-23T04:10:42.519Z,38.73
2018-12-23T04:13:11.377Z,40.33
2018-12-23T04:15:39.864Z,38.03
2018-12-23T04:18:09.025Z,43.40
2018-12-23T04:20:37.399Z,33.83
2018-12-23T04:23:05.861Z,50.73
2018-12-23T04:25:34.173Z,46.33
2018-12-23T04:28:04.023Z,42.10
2018-12-23T04:30:32.376Z,43.90
2018-12-23T04:33:00.658Z,40.23
2018-12-23T04:35:29.084Z,47.03
2018-12-23T04:37:57.460Z,36.00
2018-12-23T04:40:25.992Z,41.00
2018-12-23T04:42:54.575Z,40.70
2018-12-23T04:45:23.044Z,38.60
2018-12-23T04:47:51.655Z,40.40
2018-12-23T04:50:20.124Z,45.17
2018-12-23T04:52:48.524Z,34.07
2018-12-23T04:55:17.016Z,42.40
2018-12-23T04:57:45.607Z,35.80
2018-12-23T05:00:13.945Z,39.70
2018-12-23T05:02:42.309Z,41.37
2018-12-23T05:05:10.746Z,42.33
2018-12-23T05:07:39.357Z,43.23
2018-12-23T05:10:07.672Z,33.50
2018-12-23T05:12:36.575Z,40.30
2018-12-23T05:15:06.190Z,41.20
2018-12-23T05:17:34.692Z,41.40
2018-12-23T05:20:03.285Z,32.50
2018-12-23T05:22:31.708Z,38.93
2018-12-23T05:25:00.024Z,49.33
2018-12-23T05:27:28.368Z,41.20
2018-12-23T05:29:56.711Z,43.20
2018-12-23T05:32:26.348Z,42.23
2018-12-23T05:34:54.833Z,46.07
2018-12-23T05:37:23.176Z,43.47
2018-12-23T05:39:51.713Z,44.47
2018-12-23T05:42:21.585Z,42.27
2018-12-23T05:44:49.952Z,35.20
2018-12-23T05:47:18.361Z,34.63
2018-12-23T05:49:46.897Z,38.07
2018-12-23T05:52:15.314Z,35.30
2018-12-23T05:54:43.649Z,39.03
2018-12-23T05:57:12.221Z,31.50
2018-12-23T05:59:40.657Z,36.00
2018-12-23T06:02:08.937Z,34.50
2018-12-23T06:04:37.293Z,36.80
2018-12-23T06:07:05.804Z,32.30
2018-12-23T06:09:34.124Z,26.17
2018-12-23T06:12:02.467Z,29.37
2018-12-23T06:14:30.892Z,26.83
2018-12-23T06:16:59.285Z,36.23
2018-12-23T06:19:27.788Z,37.40
2018-12-23T06:21:56.101Z,29.40
2018-12-23T06:24:24.418Z,33.27
2018-12-23T06:26:52.736Z,29.37
2018-12-23T06:29:21.144Z,29.93
2018-12-23T06:31:49.485Z,39.07
2018-12-23T06:34:17.960Z,29.67
2018-12-23T06:36:46.287Z,32.50
2018-12-23T06:39:14.597Z,23.43
2018-12-23T06:41:43.069Z,31.80
2018-12-23T06:44:11.412Z,29.40
2018-12-23T06:46:39.832Z,23.67
2018-12-23T06:49:14.064Z,29.83
2018-12-23T06:51:41.321Z,20.17
2018-12-23T06:54:08.528Z,28.67
2018-12-23T06:56:35.737Z,24.60
2018-12-23T06:59:02.998Z,33.10
2018-12-23T07:01:31.422Z,23.13
2018-12-23T07:03:59.757Z,24.83
2018-12-23T07:06:28.088Z,20.13
2018-12-23T07:08:56.408Z,25.30
2018-12-23T07:11:24.755Z,27.50
2018-12-23T07:13:53.060Z,28.10
2018-12-23T07:16:21.586Z,30.00
2018-12-23T07:18:49.983Z,30.97
2018-12-23T07:21:18.372Z,26.73
2018-12-23T07:23:46.685Z,25.53
2018-12-23T07:26:15.072Z,25.47
2018-12-23T07:28:43.480Z,26.40
2018-12-23T07:31:11.813Z,26.17
2018-12-23T07:33:40.150Z,25.13
2018-12-23T07:36:08.572Z,19.43
2018-12-23T07:38:37.580Z,25.77
2018-12-23T07:41:05.824Z,20.50
2018-12-23T07:43:34.064Z,33.23
2018-12-23T07:46:02.413Z,26.67
2018-12-23T07:48:31.022Z,28.50
2018-12-23T07:50:59.346Z,33.40
2018-12-23T07:53:27.665Z,22.10
2018-12-23T07:55:55.996Z,23.50
2018-12-23T07:58:24.924Z,24.27
2018-12-23T08:00:53.341Z,31.27
2018-12-23T08:03:21.852Z,21.30
2018-12-23T08:05:50.524Z,21.83
2018-12-23T08:08:18.853Z,31.80
2018-12-23T08:10:47.591Z,31.70
2018-12-23T08:13:15.948Z,25.80
2018-12-23T08:15:44.265Z,24.90
2018-12-23T08:18:12.557Z,22.20
2018-12-23T08:20:40.997Z,22.63
2018-12-23T08:23:09.360Z,16.60
2018-12-23T08:25:37.704Z,20.83
2018-12-23T08:28:16.638Z,25.43
2018-12-23T08:30:43.949Z,27.83
2018-12-23T08:33:11.207Z,20.27
2018-12-23T08:35:38.404Z,23.20
2018-12-23T08:38:05.629Z,22.23
2018-12-23T08:40:33.380Z,28.77
2018-12-23T08:43:01.740Z,28.83
2018-12-23T08:45:30.349Z,27.23
2018-12-23T08:47:59.006Z,24.60
2018-12-23T08:50:27.235Z,23.97
2018-12-23T08:52:55.613Z,26.10
2018-12-23T08:55:24.024Z,25.10
2018-12-23T08:57:52.356Z,19.33
2018-12-23T09:00:20.580Z,21.70
2018-12-23T09:02:49.221Z,25.83
2018-12-23T09:05:17.564Z,23.20
2018-12-23T09:07:52.919Z,18.83
2018-12-23T09:10:16.947Z,24.57
2018-12-23T09:12:46.279Z,18.37
2018-12-23T09:15:14.711Z,18.27
2018-12-23T09:17:48.909Z,19.47
2018-12-23T09:20:16.316Z,25.00
2018-12-23T09:22:43.556Z,23.47
2018-12-23T09:25:10.764Z,24.27
2018-12-23T09:27:40.786Z,17.50
2018-12-23T09:30:09.004Z,24.87
2018-12-23T09:32:36.274Z,21.37
2018-12-23T09:35:04.000Z,17.90
2018-12-23T09:37:31.237Z,16.63
2018-12-23T09:39:59.721Z,16.20
2018-12-23T09:42:28.173Z,14.60
2018-12-23T09:44:56.617Z,13.20
2018-12-23T09:47:25.165Z,16.80
2018-12-23T09:49:53.500Z,15.10
2018-12-23T09:52:22.021Z,18.03
2018-12-23T09:54:50.427Z,17.20
2018-12-23T09:57:18.756Z,19.63
2018-12-23T09:59:46.997Z,15.37
2018-12-23T10:02:15.591Z,12.10
2018-12-23T10:04:43.936Z,19.17
2018-12-23T10:07:12.247Z,22.80
2018-12-23T10:09:40.587Z,18.57
2018-12-23T10:12:14.785Z,18.97
2018-12-23T10:14:42.076Z,10.67
2018-12-23T10:17:09.403Z,11.77
2018-12-23T10:19:36.625Z,15.97
2018-12-23T10:22:04.970Z,21.80
2018-12-23T10:24:33.285Z,18.40
2018-12-23T10:27:01.691Z,18.73
2018-12-23T10:29:30.249Z,22.80
2018-12-23T10:31:58.671Z,14.23
2018-12-23T10:34:27.042Z,15.77
2018-12-23T10:36:56.541Z,15.30
2018-12-23T10:39:24.868Z,11.37
2018-12-23T10:41:53.319Z,12.70
2018-12-23T10:44:21.775Z,12.73
2018-12-23T10:46:50.164Z,16.07
2018-12-23T10:49:18.591Z,19.37
2018-12-23T10:51:46.867Z,12.47
2018-12-23T10:54:15.192Z,14.63
2018-12-23T10:56:43.532Z,12.87
2018-12-23T10:59:11.956Z,13.13
2018-12-23T11:01:40.289Z,12.30
2018-12-23T11:04:08.825Z,15.20
2018-12-23T11:06:37.284Z,15.33
2018-12-23T11:09:05.839Z,20.10
2018-12-23T11:11:34.376Z,19.00
2018-12-23T11:14:13.173Z,15.27
2018-12-23T11:16:41.820Z,16.60
2018-12-23T11:19:10.591Z,14.60
2018-12-23T11:21:38.917Z,16.30
2018-12-23T11:24:07.257Z,16.67
2018-12-23T11:26:35.847Z,14.53
2018-12-23T11:29:04.168Z,13.27
2018-12-23T11:31:32.695Z,13.70
2018-12-23T11:34:01.078Z,19.63
2018-12-23T11:36:29.267Z,23.10
2018-12-23T11:38:57.707Z,18.57
2018-12-23T11:41:25.992Z,21.43
2018-12-23T11:43:54.564Z,15.00
2018-12-23T11:46:24.389Z,22.70
2018-12-23T11:48:52.922Z,17.00
2018-12-23T11:51:21.457Z,14.80
2018-12-23T11:53:49.922Z,16.67
2018-12-23T11:56:18.240Z,17.13
2018-12-23T11:58:50.367Z,21.17
2018-12-23T12:01:18.644Z,21.67
2018-12-23T12:03:46.952Z,19.13
2018-12-23T12:06:15.273Z,14.73
2018-12-23T12:08:44.101Z,20.60
2018-12-23T12:11:17.233Z,18.93
2018-12-23T12:13:45.587Z,18.60
2018-12-23T12:16:13.863Z,15.60
2018-12-23T12:18:42.166Z,18.17
2018-12-23T12:21:10.489Z,19.23
2018-12-23T12:23:38.792Z,16.73
2018-12-23T12:26:10.688Z,16.30
2018-12-23T12:28:39.084Z,18.17
2018-12-23T12:31:07.554Z,15.50
2018-12-23T12:33:35.873Z,22.13
2018-12-23T12:36:04.135Z,24.10
2018-12-23T12:38:33.955Z,24.87
2018-12-23T12:41:02.434Z,19.10
2018-12-23T12:43:30.723Z,19.83
2018-12-23T12:46:00.594Z,20.10
2018-12-23T12:48:29.383Z,20.20
2018-12-23T12:50:58.628Z,15.33
2018-12-23T12:53:27.054Z,14.80
2018-12-23T12:55:55.526Z,14.73
2018-12-23T12:58:23.956Z,9.13
2018-12-23T13:00:52.348Z,11.80
2018-12-23T13:03:22.731Z,16.60
2018-12-23T13:05:52.762Z,15.87
2018-12-23T13:08:19.972Z,16.60
2018-12-23T13:10:48.222Z,13.03
2018-12-23T13:13:17.096Z,11.00
2018-12-23T13:15:46.936Z,12.83
2018-12-23T13:18:15.266Z,14.57
2018-12-23T13:20:43.588Z,8.37
2018-12-23T13:23:11.915Z,14.10
2018-12-23T13:25:40.230Z,7.77
2018-12-23T13:28:10.990Z,9.10
2018-12-23T13:30:39.518Z,9.93
2018-12-23T13:33:08.077Z,5.63
2018-12-23T13:35:36.593Z,12.43
2018-12-23T13:38:04.981Z,12.73
2018-12-23T13:41:50.977Z,9.37
2018-12-23T13:44:45.847Z,9.97
2018-12-23T13:48:25.174Z,7.83
2018-12-23T13:51:07.797Z,11.90
2018-12-23T13:53:50.531Z,8.90
2018-12-23T13:58:36.872Z,8.10
2018-12-23T14:01:53.728Z,12.30
2018-12-23T14:05:06.784Z,10.50
2018-12-23T14:07:50.247Z,11.27
2018-12-23T14:10:31.641Z,15.23
2018-12-23T14:13:12.541Z,9.33
2018-12-23T14:15:53.266Z,10.43
2018-12-23T14:18:33.199Z,10.17
2018-12-23T14:21:13.799Z,7.63
2018-12-23T14:23:54.404Z,12.33
2018-12-23T14:26:36.066Z,6.67
2018-12-23T14:29:24.666Z,8.50
2018-12-23T14:32:14.155Z,8.73
2018-12-23T14:34:57.927Z,8.97
2018-12-23T14:37:39.482Z,12.40
2018-12-23T14:40:21.378Z,11.23
2018-12-23T14:43:01.514Z,11.60
2018-12-23T14:45:41.958Z,14.13
2018-12-23T14:48:22.311Z,10.20
2018-12-23T14:51:02.320Z,9.90
2018-12-23T14:53:42.955Z,12.13
2018-12-23T14:56:23.667Z,11.17
2018-12-23T14:59:05.469Z,10.97
2018-12-23T15:01:46.694Z,14.53
2018-12-23T15:04:28.113Z,15.67
2018-12-23T15:07:10.081Z,15.53
2018-12-23T15:09:51.346Z,14.53
2018-12-23T15:12:32.879Z,13.17
2018-12-23T15:15:13.239Z,11.63
2018-12-23T15:17:53.107Z,12.43
2018-12-23T15:20:33.526Z,12.93
2018-12-23T15:23:13.970Z,14.90
2018-12-23T15:25:54.545Z,16.40
2018-12-23T15:28:35.980Z,11.00
2018-12-23T15:31:04.773Z,12.13
2018-12-23T15:33:53.686Z,12.20
2018-12-23T15:36:36.573Z,9.73
2018-12-23T15:39:17.766Z,14.13
2018-12-23T15:41:59.293Z,14.43
2018-12-23T15:44:40.779Z,19.20
2018-12-23T15:47:20.673Z,13.10
2018-12-23T15:50:01.382Z,14.40
2018-12-23T15:52:41.539Z,13.60
2018-12-23T15:55:21.922Z,15.37
2018-12-23T15:58:02.267Z,20.53
2018-12-23T16:00:43.746Z,17.80
2018-12-23T16:03:25.386Z,19.17
2018-12-23T16:06:06.086Z,20.20
2018-12-23T16:08:47.097Z,13.13
2018-12-23T16:11:28.648Z,19.13
2018-12-23T16:13:57.473Z,18.03
2018-12-23T16:16:39.601Z,23.43
2018-12-23T16:19:20.067Z,20.63
2018-12-23T16:22:00.611Z,23.33
2018-12-23T16:24:42.462Z,23.27
2018-12-23T16:27:22.210Z,25.73
2018-12-23T16:30:02.673Z,24.23
2018-12-23T16:32:44.261Z,16.23
2018-12-23T16:35:24.934Z,17.73
2018-12-23T16:38:06.354Z,20.70
2018-12-23T16:40:47.070Z,19.17
2018-12-23T16:43:28.850Z,21.27
2018-12-23T16:46:10.761Z,25.57
2018-12-23T16:48:52.246Z,15.23
2018-12-23T16:51:32.246Z,24.27
2018-12-23T16:54:12.078Z,21.77
2018-12-23T16:56:52.790Z,23.60
2018-12-23T16:59:32.850Z,20.97
2018-12-23T17:02:13.286Z,21.60
2018-12-23T17:04:55.203Z,25.53
2018-12-23T17:07:36.612Z,25.43
2018-12-23T17:10:17.206Z,32.43
2018-12-23T17:12:58.274Z,20.43
2018-12-23T17:15:39.998Z,24.20
2018-12-23T17:18:21.365Z,21.90
2018-12-23T17:21:02.436Z,24.33
2018-12-23T17:23:42.917Z,23.27
2018-12-23T17:26:23.030Z,18.80
2018-12-23T17:29:03.067Z,20.90
2018-12-23T17:31:43.611Z,24.67
2018-12-23T17:34:23.623Z,34.83
2018-12-23T17:37:04.849Z,30.40
2018-12-23T17:39:45.830Z,42.37
2018-12-23T17:42:27.405Z,42.20
2018-12-23T17:45:08.442Z,41.43
2018-12-23T17:47:49.993Z,26.93
2018-12-23T17:50:31.413Z,49.67
2018-12-23T17:52:59.777Z,48.00
2018-12-23T17:55:48.676Z,45.57
2018-12-23T17:58:28.934Z,45.27
2018-12-23T18:01:09.470Z,42.67
2018-12-23T18:03:49.627Z,38.13
2018-12-23T18:06:29.339Z,31.33
2018-12-23T18:09:11.317Z,27.10
2018-12-23T18:11:56.569Z,24.60
2018-12-23T18:14:37.258Z,29.57
2018-12-23T18:17:18.780Z,22.70
2018-12-23T18:20:00.041Z,25.00
2018-12-23T18:22:40.622Z,19.17
2018-12-23T18:25:22.079Z,25.80
2018-12-23T18:28:02.447Z,24.40
2018-12-23T18:30:42.960Z,30.80
2018-12-23T18:33:23.412Z,37.17
2018-12-23T18:36:03.971Z,29.97
2018-12-23T18:38:44.542Z,32.00
2018-12-23T18:41:25.307Z,27.63
2018-12-23T18:44:05.865Z,26.20
2018-12-23T18:46:46.795Z,26.30
2018-12-23T18:49:16.824Z,33.40
2018-12-23T18:52:04.964Z,27.43
2018-12-23T18:54:46.500Z,22.60
2018-12-23T18:57:36.931Z,23.77
2018-12-23T19:00:05.424Z,21.93
2018-12-23T19:02:45.440Z,24.33
2018-12-23T19:05:25.605Z,22.10
2018-12-23T19:08:05.630Z,23.57
2018-12-23T19:10:46.458Z,28.60
2018-12-23T19:13:26.892Z,23.73
2018-12-23T19:16:07.463Z,26.20
2018-12-23T19:18:48.008Z,26.00
2018-12-23T19:21:28.550Z,24.90
2018-12-23T19:24:10.255Z,25.30
2018-12-23T19:26:51.625Z,24.10
2018-12-23T19:29:34.819Z,25.13
2018-12-23T19:32:15.921Z,26.77
2018-12-23T19:35:23.796Z,25.03
2018-12-23T19:38:30.478Z,22.00
2018-12-23T19:41:11.954Z,21.50
2018-12-23T19:43:52.528Z,21.80
2018-12-23T19:46:32.856Z,18.13
2018-12-23T19:49:13.717Z,21.63
2018-12-23T19:51:54.564Z,19.37
2018-12-23T19:54:35.302Z,22.90
2018-12-23T19:57:15.711Z,18.80
2018-12-23T20:00:08.599Z,15.43
2018-12-23T20:03:15.305Z,14.87
2018-12-23T20:05:55.398Z,12.20
2018-12-23T20:08:35.935Z,9.30
2018-12-23T20:11:16.718Z,11.30
2018-12-23T20:14:23.135Z,12.40
2018-12-23T20:17:04.817Z,12.97
2018-12-23T20:19:46.342Z,9.87
2018-12-23T20:22:27.629Z,9.20
2018-12-23T20:25:09.494Z,10.37
2018-12-23T20:27:50.538Z,8.00
2018-12-23T20:30:32.335Z,7.40
2018-12-23T20:33:12.165Z,7.43
2018-12-23T20:35:52.763Z,7.27
2018-12-23T20:38:33.509Z,11.33
2018-12-23T20:41:13.695Z,10.57
2018-12-23T20:44:20.368Z,10.03
2018-12-23T20:47:26.769Z,9.53
2018-12-23T20:50:08.309Z,11.87
2018-12-23T20:52:48.239Z,10.13
2018-12-23T20:55:54.934Z,8.43
2018-12-23T20:59:04.187Z,9.70
2018-12-23T21:02:06.146Z,10.43
2018-12-23T21:04:47.933Z,10.17
2018-12-23T21:07:29.198Z,9.00
2018-12-23T21:10:10.406Z,8.90
2018-12-23T21:12:51.645Z,9.37
2018-12-23T21:15:32.666Z,8.47
2018-12-23T21:18:14.407Z,8.90
2018-12-23T21:20:57.250Z,8.87
2018-12-23T21:23:38.596Z,7.33
2018-12-23T21:26:19.019Z,11.67
2018-12-23T21:28:59.522Z,11.73
2018-12-23T21:31:41.066Z,6.93
2018-12-23T21:34:22.634Z,8.80
2018-12-23T21:37:04.294Z,12.50
2018-12-23T21:39:46.245Z,8.97
2018-12-23T21:42:27.435Z,6.73
2018-12-23T21:45:08.120Z,11.47
2018-12-23T21:47:49.635Z,7.78
2018-12-23T21:50:30.082Z,7.90
2018-12-23T21:53:11.501Z,7.93
2018-12-23T21:55:52.479Z,6.90
2018-12-23T21:58:34.206Z,11.03
2018-12-23T22:01:40.791Z,10.70
2018-12-23T22:04:47.794Z,8.53
2018-12-23T22:07:28.362Z,11.73
2018-12-23T22:10:35.021Z,12.37
2018-12-23T22:13:41.926Z,6.70
2018-12-23T22:16:09.566Z,10.77
2018-12-23T22:18:57.150Z,6.90
2018-12-23T22:21:37.401Z,6.27
2018-12-23T22:24:17.751Z,8.23
2018-12-23T22:26:57.328Z,12.90
2018-12-23T22:29:35.481Z,11.43
2018-12-23T22:32:26.248Z,9.53
2018-12-23T22:35:05.977Z,12.30
2018-12-23T22:37:45.628Z,13.33
2018-12-23T22:40:26.062Z,13.40
2018-12-23T22:43:06.562Z,10.40
2018-12-23T22:45:47.022Z,10.67
2018-12-23T22:48:27.462Z,13.20
2018-12-23T22:51:07.262Z,13.63
2018-12-23T22:53:47.260Z,13.33
2018-12-23T22:56:27.453Z,16.53
2018-12-23T22:59:07.825Z,10.72
2018-12-23T23:01:48.219Z,12.47
2018-12-23T23:04:28.681Z,12.30
2018-12-23T23:07:09.159Z,13.95
2018-12-23T23:09:50.002Z,13.28
2018-12-23T23:12:33.266Z,15.05
2018-12-23T23:15:13.455Z,16.10
2018-12-23T23:17:53.117Z,14.15
2018-12-23T23:20:33.504Z,10.88
2018-12-23T23:23:14.002Z,21.65
2018-12-23T23:25:54.387Z,12.45
2018-12-23T23:28:34.145Z,9.40
2018-12-23T23:31:02.354Z,6.00
2018-12-23T23:33:51.307Z,7.45
2018-12-23T23:36:31.291Z,7.47
2018-12-23T23:38:58.930Z,5.37
2018-12-23T23:41:47.831Z,7.87
2018-12-23T23:44:28.263Z,8.15
2018-12-23T23:47:08.736Z,10.75
2018-12-23T23:49:49.031Z,7.33
2018-12-23T23:52:29.511Z,7.05
2018-12-23T23:55:10.652Z,8.70
2018-12-23T23:57:50.407Z,10.43
